Grimes, IA (50111)

9:55 PM CST on February 24, 2017 (GMT -0600)
Grimes | | Change Station
Active Advisory: Winter Weather Statement

Elev 974 ft 41.69 °N, 93.79 °W | Updated 26 seconds ago

Overcast
Overcast
22.1 °F
Feels Like 9 °F
N
15.0
Wind Variable Wind from NW

Today
High -- | Low -- °F
--% Chance of Precip.
Yesterday
High -- | Low -- °F
Precip. -- in
Pressure 29.90 in
Visibility 10.0 miles
Clouds Few 2600 ft
Few 3500 ft
Overcast 4600 ft
Windchill 9 °F
Dew Point 19 °F
Humidity 90%
Rainfall 0.18 in
Snow Depth Not available.
6:57 AM 6:00 PM
Waning Crescent, 3% visible
METAR KIKV 250335Z AUTO 32012G17KT 10SM -SN FEW026 FEW035 OVC046 M04/M07 A2990 RMK AO2
Pressure 29.90 in
Visibility 10.0 miles
Clouds Few 2600 ft
Few 3500 ft
Overcast 4600 ft
Windchill 9 °F
Dew Point 19 °F
Humidity 90%
Rainfall 0.18 in
Snow Depth Not available.
6:57 AM 6:00 PM
Waning Crescent, 3% visible
METAR KIKV 250335Z AUTO 32012G17KT 10SM -SN FEW026 FEW035 OVC046 M04/M07 A2990 RMK AO2

Get Your Daily Forecast Email!

Thanks for signing up!

Be on the lookout for a verification email in your inbox.

You'll start receiving the daily forecast at 8 AM.

×

10-Day Weather Forecast

Almanac

Astronomy

Feb. 24, 2017 Rise Set
Actual Time
Civil Twilight
Nautical Twilight
Astronomical Twilight
Moon
Length of Visible Light
Length of Day
Tomorrow will be .
, % of the Moon is Illuminated

Today's Extremes

State Highs State Lows

Community

WunderPhotos

Upload Photos

1,962,540 photos uploaded!

WunderBlog® & News

Nearby

Air Quality

  Air Quality AQ Index Pollutant
Not available.

Snow Depth

Station Depth Elevation

Earthquake Activity

City Distance Mag. Time & Date
Minimum magnitude displayed is 2.5.

Coastal Water Temperatures

Place Temperature

Stations

Nearby Weather Stations

Station Location Temp. Windchill Dew Point Humidity Wind Precip. Elev Updated Type
                   

Watches & Warnings

Winter Weather Statement
Issued: 9:51 PM CST Feb. 24, 2017 – National Weather Service

... Winter Weather Advisory is cancelled...

The National Weather Service in Des Moines has cancelled the
Winter Weather Advisory.

Snow has ended or is very light and visibilities have improved,
thus the advisory has been cancelled.